Time;durP1;ratioP1;P1;durP2;ratioP2;P2;SDS_P1;SDS_P2;PMS_P1;PMS_P2;Temp;Humidity;BMP_temperature;BMP_pressure;BME280_temperature;BME280_humidity;BME280_pressure;Samples;Min_cycle;Max_cycle;Signal;HPM_P1;HPM_P2
2022/06/27 00:02:00;;;;;;;;;;;;;;;;;;4783765;29;19947;-89
2022/06/27 00:04:26;;;;;;;;;;;;;;;;;;4816165;29;20945;-90
2022/06/27 00:06:59;;;;;;;;;;;;;;;;;;4806999;29;19955;-90
2022/06/27 00:09:26;;;;;;;;;;;;;;;;;;4780736;29;19924;-90
2022/06/27 00:11:53;;;;;;;;;;;;;;;;;;4783971;29;19981;-90
2022/06/27 00:14:19;;;;;;;;;;;;;;;;;;4809245;29;19932;-90
2022/06/27 00:16:47;;;;;;;;;;;;;;;;;;4814591;29;19975;-90
2022/06/27 00:19:14;;;;;;;;;;;;;;;;;;4827711;29;20019;-90
2022/06/27 00:21:40;;;;;;;;;;;;;;;;;;4820666;29;19936;-90
2022/06/27 00:24:07;;;;;;;;;;;;;;;;;;4829331;29;19936;-89
2022/06/27 00:26:33;;;;;;;;;;;;;;;;;;4827880;29;22992;-89
2022/06/27 00:28:59;;;;;;;;;;;;;;;;;;4804980;29;19924;-90
2022/06/27 00:31:25;;;;;;;;;;;;;;;;;;4829677;29;19936;-89
2022/06/27 00:33:51;;;;;;;;;;;;;;;;;;4820933;29;20017;-90
2022/06/27 00:36:18;;;;;;;;;;;;;;;;;;4818127;29;19928;-90
2022/06/27 00:38:45;;;;;;;;;;;;;;;;;;4806180;29;19929;-89
2022/06/27 00:41:11;;;;;;;;;;;;;;;;;;4825472;29;19979;-90
2022/06/27 00:43:38;;;;;;;;;;;;;;;;;;4839449;29;20080;-89
2022/06/27 00:46:06;;;;;;;;;;;;;;;;;;4843469;29;20022;-90
2022/06/27 00:48:32;;;;;;;;;;;;;;;;;;4810800;29;20023;-90
2022/06/27 00:50:59;;;;;;;;;;;;;;;;;;4820444;29;19932;-89
2022/06/27 00:53:25;;;;;;;;;;;;;;;;;;4823409;29;19978;-89
2022/06/27 00:55:57;;;;;;;;;;;;;;;;;;4823652;29;20452;-89
2022/06/27 00:58:42;;;;;;;;;;;;;;;;;;4830272;29;19936;-90
2022/06/27 01:01:10;;;;;;;;;;;;;;;;;;4821865;29;21636;-88
2022/06/27 01:03:36;;;;;;;;;;;;;;;;;;4809556;29;19966;-89
2022/06/27 01:06:03;;;;;;;;;;;;;;;;;;4823603;29;19928;-90
2022/06/27 01:08:32;;;;;;;;;;;;;;;;;;4827296;29;19932;-89
2022/06/27 01:11:01;;;;;;;;;;;;;;;;;;4821887;29;19942;-89
2022/06/27 01:13:28;;;;;;;;;;;;;;;;;;4813532;29;19928;-88
2022/06/27 01:15:54;;;;;;;;;;;;;;;;;;4820037;29;20028;-89
2022/06/27 01:18:27;;;;;;;;;;;;;;;;;;4820038;29;20293;-89
2022/06/27 01:20:54;;;;;;;;;;;;;;;;;;4799025;29;19928;-90
2022/06/27 01:23:20;;;;;;;;;;;;;;;;;;4813583;29;19981;-89
2022/06/27 01:25:47;;;;;;;;;;;;;;;;;;4805716;29;19932;-90
2022/06/27 01:28:14;;;;;;;;;;;;;;;;;;4822393;29;20403;-89
2022/06/27 01:30:55;;;;;;;;;;;;;;;;;;4821208;29;19988;-90
2022/06/27 01:33:21;;;;;;;;;;;;;;;;;;4819506;29;19929;-89
2022/06/27 01:35:47;;;;;;;;;;;;;;;;;;4815481;29;19924;-89
2022/06/27 01:38:13;;;;;;;;;;;;;;;;;;4823797;29;19981;-90
2022/06/27 01:40:46;;;;;;;;;;;;;;;;;;4821951;29;20444;-90
2022/06/27 01:43:12;;;;;;;;;;;;;;;;;;4824278;29;19930;-89
2022/06/27 01:45:39;;;;;;;;;;;;;;;;;;4815784;29;23057;-89
2022/06/27 01:48:06;;;;;;;;;;;;;;;;;;4821977;29;19931;-89
2022/06/27 01:50:36;;;;;;;;;;;;;;;;;;4819959;29;19931;-89
2022/06/27 01:53:02;;;;;;;;;;;;;;;;;;4805316;29;20183;-89
2022/06/27 01:55:48;;;;;;;;;;;;;;;;;;4814684;29;19980;-90
2022/06/27 01:58:15;;;;;;;;;;;;;;;;;;4835225;29;19998;-89
2022/06/27 02:00:45;;;;;;;;;;;;;;;;;;4823805;29;19931;-89
2022/06/27 02:03:13;;;;;;;;;;;;;;;;;;4831892;29;19997;-89
2022/06/27 02:05:39;;;;;;;;;;;;;;;;;;4810441;29;20418;-89
2022/06/27 02:08:05;;;;;;;;;;;;;;;;;;4823463;29;20019;-89
2022/06/27 02:10:32;;;;;;;;;;;;;;;;;;4825584;29;19972;-90
2022/06/27 02:13:00;;;;;;;;;;;;;;;;;;4816866;29;19932;-89
2022/06/27 02:15:27;;;;;;;;;;;;;;;;;;4825625;29;19932;-90
2022/06/27 02:17:53;;;;;;;;;;;;;;;;;;4823732;29;20799;-89
2022/06/27 02:20:20;;;;;;;;;;;;;;;;;;4813043;29;19928;-89
2022/06/27 02:22:48;;;;;;;;;;;;;;;;;;4817810;29;19969;-89
2022/06/27 02:25:14;;;;;;;;;;;;;;;;;;4823318;29;19986;-89
2022/06/27 02:27:41;;;;;;;;;;;;;;;;;;4806242;29;20593;-89
2022/06/27 02:30:17;;;;;;;;;;;;;;;;;;4826107;29;20087;-89
2022/06/27 02:32:43;;;;;;;;;;;;;;;;;;4804824;29;20330;-89
2022/06/27 02:35:09;;;;;;;;;;;;;;;;;;4812002;29;19933;-90
2022/06/27 02:37:34;;;;;;;;;;;;;;;;;;4825625;29;19932;-90
2022/06/27 02:40:08;;;;;;;;;;;;;;;;;;4819283;29;19946;-89
2022/06/27 02:42:38;;;;;;;;;;;;;;;;;;4810901;29;19932;-90
2022/06/27 02:45:19;;;;;;;;;;;;;;;;;;4805691;29;19937;-89
2022/06/27 02:47:45;;;;;;;;;;;;;;;;;;4783628;29;20314;-90
2022/06/27 02:50:12;;;;;;;;;;;;;;;;;;4791068;29;19968;-91
2022/06/27 02:52:39;;;;;;;;;;;;;;;;;;4787624;29;19925;-90
2022/06/27 02:55:22;;;;;;;;;;;;;;;;;;4771459;29;19933;-89
2022/06/27 02:57:48;;;;;;;;;;;;;;;;;;4751913;29;21006;-89
2022/06/27 03:00:16;;;;;;;;;;;;;;;;;;4751001;29;20016;-90
2022/06/27 03:02:42;;;;;;;;;;;;;;;;;;4749823;29;20690;-89
2022/06/27 03:05:09;;;;;;;;;;;;;;;;;;4767246;29;20078;-89
2022/06/27 03:07:35;;;;;;;;;;;;;;;;;;4741243;29;22061;-90
2022/06/27 03:10:04;;;;;;;;;;;;;;;;;;4755909;29;19936;-89
2022/06/27 03:12:31;;;;;;;;;;;;;;;;;;4757568;29;19933;-90
2022/06/27 03:14:57;;;;;;;;;;;;;;;;;;4752954;29;20376;-90
2022/06/27 03:17:23;;;;;;;;;;;;;;;;;;4772328;29;19940;-90
2022/06/27 03:19:50;;;;;;;;;;;;;;;;;;4785041;29;19929;-89
2022/06/27 03:22:16;;;;;;;;;;;;;;;;;;4805783;29;21607;-89
2022/06/27 03:24:44;;;;;;;;;;;;;;;;;;4788255;29;20008;-89
2022/06/27 03:27:11;;;;;;;;;;;;;;;;;;4803858;29;19980;-89
2022/06/27 03:29:37;;;;;;;;;;;;;;;;;;4820736;29;19931;-91
2022/06/27 03:32:03;;;;;;;;;;;;;;;;;;4825041;29;20302;-91
2022/06/27 03:34:31;;;;;;;;;;;;;;;;;;4824775;29;19925;-91
2022/06/27 03:36:57;;;;;;;;;;;;;;;;;;4803554;29;22779;-91
2022/06/27 03:39:39;;;;;;;;;;;;;;;;;;4816207;29;19940;-91
2022/06/27 03:42:06;;;;;;;;;;;;;;;;;;4804393;29;19935;-91
2022/06/27 03:44:33;;;;;;;;;;;;;;;;;;4794912;29;19936;-91
2022/06/27 03:46:59;;;;;;;;;;;;;;;;;;4789882;29;19936;-91
2022/06/27 03:52:12;;;;;;;;;;;;;;;;;;4815747;29;19928;-91
2022/06/27 03:54:40;;;;;;;;;;;;;;;;;;4803644;29;19924;-91
2022/06/27 03:57:07;;;;;;;;;;;;;;;;;;4827626;29;19973;-90
2022/06/27 03:59:33;;;;;;;;;;;;;;;;;;4794913;29;19981;-90
2022/06/27 04:02:02;;;;;;;;;;;;;;;;;;4822293;29;19932;-90
2022/06/27 04:04:28;;;;;;;;;;;;;;;;;;4826454;29;19939;-90
2022/06/27 04:06:57;;;;;;;;;;;;;;;;;;4818693;29;21301;-89
2022/06/27 04:09:24;;;;;;;;;;;;;;;;;;4810264;29;21765;-91
2022/06/27 04:11:50;;;;;;;;;;;;;;;;;;4822422;29;20440;-91
2022/06/27 04:14:17;;;;;;;;;;;;;;;;;;4815203;29;19939;-93
2022/06/27 04:16:44;;;;;;;;;;;;;;;;;;4825033;29;19988;-92
2022/06/27 04:19:12;;;;;;;;;;;;;;;;;;4829662;29;20520;-92
2022/06/27 04:21:39;;;;;;;;;;;;;;;;;;4826124;29;19943;-92
2022/06/27 04:24:05;;;;;;;;;;;;;;;;;;4833780;29;20316;-91
2022/06/27 04:26:31;;;;;;;;;;;;;;;;;;4817194;29;19932;-92
2022/06/27 04:28:57;;;;;;;;;;;;;;;;;;4811487;29;19932;-92
2022/06/27 04:31:24;;;;;;;;;;;;;;;;;;4815234;29;19936;-92
2022/06/27 04:33:50;;;;;;;;;;;;;;;;;;4822165;29;19931;-92
2022/06/27 04:36:25;;;;;;;;;;;;;;;;;;4822527;29;19929;-91
2022/06/27 04:38:51;;;;;;;;;;;;;;;;;;4820075;29;19942;-91
2022/06/27 04:41:20;;;;;;;;;;;;;;;;;;4822470;29;19928;-91
2022/06/27 04:43:47;;;;;;;;;;;;;;;;;;4806573;29;20012;-89
2022/06/27 04:46:15;;;;;;;;;;;;;;;;;;4812407;29;20327;-91
2022/06/27 04:48:42;;;;;;;;;;;;;;;;;;4822949;29;20014;-90
2022/06/27 04:51:09;;;;;;;;;;;;;;;;;;4816826;29;19932;-90
2022/06/27 04:53:35;;;;;;;;;;;;;;;;;;4839054;29;20014;-90
2022/06/27 04:56:03;;;;;;;;;;;;;;;;;;4822406;29;20348;-90
2022/06/27 04:58:30;;;;;;;;;;;;;;;;;;4810546;29;19973;-90
2022/06/27 05:00:58;;;;;;;;;;;;;;;;;;4822587;29;21876;-90
2022/06/27 05:03:24;;;;;;;;;;;;;;;;;;4826097;29;20311;-90
2022/06/27 05:05:54;;;;;;;;;;;;;;;;;;4823333;29;19985;-90
2022/06/27 05:08:37;;;;;;;;;;;;;;;;;;4827046;29;20020;-91
2022/06/27 05:11:03;;;;;;;;;;;;;;;;;;4810000;29;19936;-90
2022/06/27 05:13:31;;;;;;;;;;;;;;;;;;4831366;29;19928;-90
2022/06/27 05:15:58;;;;;;;;;;;;;;;;;;4822341;29;20031;-90
2022/06/27 05:18:25;;;;;;;;;;;;;;;;;;4827995;29;19931;-90
2022/06/27 05:21:01;;;;;;;;;;;;;;;;;;4826227;29;19928;-90
2022/06/27 05:23:28;;;;;;;;;;;;;;;;;;4828360;29;19924;-91
2022/06/27 05:26:01;;;;;;;;;;;;;;;;;;4823006;29;21082;-90
2022/06/27 05:28:29;;;;;;;;;;;;;;;;;;4826894;29;19951;-90
2022/06/27 05:30:56;;;;;;;;;;;;;;;;;;4839523;29;21372;-89
2022/06/27 05:33:26;;;;;;;;;;;;;;;;;;4825876;29;19932;-89
2022/06/27 05:35:53;;;;;;;;;;;;;;;;;;4815325;29;20332;-89
2022/06/27 05:38:20;;;;;;;;;;;;;;;;;;4813912;29;20075;-89
2022/06/27 05:40:48;;;;;;;;;;;;;;;;;;4821869;29;19932;-89
2022/06/27 05:43:14;;;;;;;;;;;;;;;;;;4832875;29;19981;-90
2022/06/27 05:45:42;;;;;;;;;;;;;;;;;;4828045;29;19962;-90
2022/06/27 05:48:09;;;;;;;;;;;;;;;;;;4806532;29;20013;-91
2022/06/27 05:50:38;;;;;;;;;;;;;;;;;;4808259;29;19932;-90
2022/06/27 05:53:04;;;;;;;;;;;;;;;;;;4827431;29;20433;-90
2022/06/27 05:55:32;;;;;;;;;;;;;;;;;;4819112;29;20519;-90
2022/06/27 05:58:00;;;;;;;;;;;;;;;;;;4808872;29;20109;-89
2022/06/27 06:00:28;;;;;;;;;;;;;;;;;;4822081;29;19940;-90
2022/06/27 06:02:54;;;;;;;;;;;;;;;;;;4821351;29;19928;-90
2022/06/27 06:05:44;;;;;;;;;;;;;;;;;;4823373;29;20069;-90
2022/06/27 06:08:14;;;;;;;;;;;;;;;;;;4796529;29;20403;-90
2022/06/27 06:10:41;;;;;;;;;;;;;;;;;;4801056;29;19936;-89
2022/06/27 06:13:09;;;;;;;;;;;;;;;;;;4825290;29;20011;-90
2022/06/27 06:15:38;;;;;;;;;;;;;;;;;;4793047;29;19931;-89
2022/06/27 06:18:04;;;;;;;;;;;;;;;;;;4820353;29;20018;-90
2022/06/27 06:20:32;;;;;;;;;;;;;;;;;;4826496;29;20288;-90
2022/06/27 06:23:00;;;;;;;;;;;;;;;;;;4820772;29;19932;-90
2022/06/27 06:25:26;;;;;;;;;;;;;;;;;;4804111;29;19938;-89
2022/06/27 06:28:08;;;;;;;;;;;;;;;;;;4838313;29;21450;-89
2022/06/27 06:30:35;;;;;;;;;;;;;;;;;;4834132;29;20406;-89
2022/06/27 06:33:05;;;;;;;;;;;;;;;;;;4823999;29;19990;-89
2022/06/27 06:35:33;;;;;;;;;;;;;;;;;;4828311;29;20007;-89
2022/06/27 06:38:18;;;;;;;;;;;;;;;;;;4831013;29;19995;-89
2022/06/27 06:40:45;;;;;;;;;;;;;;;;;;4810903;29;20285;-90
2022/06/27 06:43:13;;;;;;;;;;;;;;;;;;4834921;29;19931;-88
2022/06/27 06:45:40;;;;;;;;;;;;;;;;;;4823255;29;20398;-89
2022/06/27 06:48:08;;;;;;;;;;;;;;;;;;4834845;29;19958;-90
2022/06/27 06:50:36;;;;;;;;;;;;;;;;;;4835645;29;19974;-89
2022/06/27 06:53:04;;;;;;;;;;;;;;;;;;4835107;29;19939;-87
2022/06/27 06:55:34;;;;;;;;;;;;;;;;;;4834142;29;19995;-90
2022/06/27 06:58:00;;;;;;;;;;;;;;;;;;4823118;29;20076;-88
2022/06/27 07:00:28;;;;;;;;;;;;;;;;;;4824984;29;20022;-84
2022/06/27 07:02:56;;;;;;;;;;;;;;;;;;4817695;29;20000;-84
2022/06/27 07:05:22;;;;;;;;;;;;;;;;;;4833649;29;19935;-85
2022/06/27 07:07:58;;;;;;;;;;;;;;;;;;4835912;29;19939;-85
2022/06/27 07:10:25;;;;;;;;;;;;;;;;;;4839012;29;19931;-84
2022/06/27 07:12:52;;;;;;;;;;;;;;;;;;4831886;29;19932;-85
2022/06/27 07:15:18;;;;;;;;;;;;;;;;;;4824991;29;19932;-86
2022/06/27 07:17:52;;;;;;;;;;;;;;;;;;4821522;29;19935;-85
2022/06/27 07:20:22;;;;;;;;;;;;;;;;;;4825480;29;19935;-85
2022/06/27 07:23:04;;;;;;;;;;;;;;;;;;4841295;29;19940;-83
2022/06/27 07:25:33;;;;;;;;;;;;;;;;;;4844101;29;19932;-83
2022/06/27 07:28:01;;;;;;;;;;;;;;;;;;4839221;29;19938;-84
2022/06/27 07:30:28;;;;;;;;;;;;;;;;;;4838021;29;20688;-86
2022/06/27 07:33:08;;;;;;;;;;;;;;;;;;4844367;29;19928;-85
2022/06/27 07:35:44;;;;;;;;;;;;;;;;;;4840920;29;20279;-84
2022/06/27 07:38:12;;;;;;;;;;;;;;;;;;4837360;29;19932;-85
2022/06/27 07:40:42;;;;;;;;;;;;;;;;;;4838252;29;19932;-85
2022/06/27 07:43:13;;;;;;;;;;;;;;;;;;4840352;29;19992;-85
2022/06/27 07:45:40;;;;;;;;;;;;;;;;;;4837458;29;19932;-82
2022/06/27 07:48:07;;;;;;;;;;;;;;;;;;4843522;29;19933;-84
2022/06/27 07:50:39;;;;;;;;;;;;;;;;;;4844092;29;19992;-86
2022/06/27 07:53:11;;;;;;;;;;;;;;;;;;4840896;29;19935;-86
2022/06/27 07:55:39;;;;;;;;;;;;;;;;;;4826029;29;19936;-86
2022/06/27 07:58:07;;;;;;;;;;;;;;;;;;4841149;29;19928;-86
2022/06/27 08:00:37;;;;;;;;;;;;;;;;;;4833881;29;20011;-86
2022/06/27 08:05:53;;;;;;;;;;;;;;;;;;4841154;29;19955;-86
2022/06/27 08:08:23;;;;;;;;;;;;;;;;;;4840532;29;19924;-86
2022/06/27 08:10:59;;;;;;;;;;;;;;;;;;4841895;29;19924;-86
2022/06/27 08:13:31;;;;;;;;;;;;;;;;;;4840594;29;20628;-86
2022/06/27 08:15:57;;;;;;;;;;;;;;;;;;4839484;29;19932;-86
2022/06/27 08:18:24;;;;;;;;;;;;;;;;;;4845256;29;19925;-86
2022/06/27 08:20:52;;;;;;;;;;;;;;;;;;4836060;29;20280;-87
2022/06/27 08:23:20;;;;;;;;;;;;;;;;;;4842965;29;19928;-87
2022/06/27 08:25:56;;;;;;;;;;;;;;;;;;4840166;29;19947;-86
2022/06/27 08:28:23;;;;;;;;;;;;;;;;;;4850497;29;19979;-86
2022/06/27 08:30:50;;;;;;;;;;;;;;;;;;4821212;29;19928;-86
2022/06/27 08:33:16;;;;;;;;;;;;;;;;;;4829573;29;19935;-86
2022/06/27 08:35:51;;;;;;;;;;;;;;;;;;4840249;29;20011;-86
2022/06/27 08:38:22;;;;;;;;;;;;;;;;;;4841253;29;19932;-86
2022/06/27 08:40:48;;;;;;;;;;;;;;;;;;4828632;29;20023;-86
2022/06/27 08:43:33;;;;;;;;;;;;;;;;;;4839985;29;19965;-86
2022/06/27 08:46:01;;;;;;;;;;;;;;;;;;4835136;29;19932;-86
2022/06/27 08:48:29;;;;;;;;;;;;;;;;;;4838031;29;20371;-85
2022/06/27 08:50:59;;;;;;;;;;;;;;;;;;4834501;29;19955;-85
2022/06/27 08:53:26;;;;;;;;;;;;;;;;;;4840461;29;20018;-86
2022/06/27 08:55:52;;;;;;;;;;;;;;;;;;4842050;29;20014;-85
2022/06/27 08:58:23;;;;;;;;;;;;;;;;;;4830770;29;20058;-85
2022/06/27 09:00:50;;;;;;;;;;;;;;;;;;4833656;29;19943;-86
2022/06/27 09:03:18;;;;;;;;;;;;;;;;;;4829492;29;19982;-85
2022/06/27 09:05:44;;;;;;;;;;;;;;;;;;4841656;29;19936;-86
2022/06/27 09:08:13;;;;;;;;;;;;;;;;;;4838390;29;20317;-85
2022/06/27 09:10:43;;;;;;;;;;;;;;;;;;4831747;29;20022;-85
2022/06/27 09:13:20;;;;;;;;;;;;;;;;;;4842231;29;20325;-85
2022/06/27 09:15:49;;;;;;;;;;;;;;;;;;4824867;29;20031;-86
2022/06/27 09:18:30;;;;;;;;;;;;;;;;;;4802545;29;19932;-86
2022/06/27 09:20:57;;;;;;;;;;;;;;;;;;4803086;29;21807;-85
2022/06/27 09:23:24;;;;;;;;;;;;;;;;;;4809971;29;20421;-85
2022/06/27 09:25:51;;;;;;;;;;;;;;;;;;4790002;29;19936;-86
2022/06/27 09:28:20;;;;;;;;;;;;;;;;;;4791052;29;19961;-85
2022/06/27 09:30:46;;;;;;;;;;;;;;;;;;4792074;29;20003;-85
2022/06/27 09:33:15;;;;;;;;;;;;;;;;;;4789661;29;19933;-86
2022/06/27 09:35:45;;;;;;;;;;;;;;;;;;4800167;29;19936;-86
2022/06/27 09:38:15;;;;;;;;;;;;;;;;;;4805458;29;19939;-85
2022/06/27 09:40:42;;;;;;;;;;;;;;;;;;4807335;29;19986;-86
2022/06/27 09:43:16;;;;;;;;;;;;;;;;;;4800702;29;19935;-85
2022/06/27 09:45:43;;;;;;;;;;;;;;;;;;4779556;29;20296;-85
2022/06/27 09:48:10;;;;;;;;;;;;;;;;;;4816595;29;20312;-85
2022/06/27 09:50:39;;;;;;;;;;;;;;;;;;4845311;29;19935;-85
2022/06/27 09:53:07;;;;;;;;;;;;;;;;;;4831501;29;19955;-85
2022/06/27 09:55:35;;;;;;;;;;;;;;;;;;4830797;29;19929;-85
2022/06/27 09:58:22;;;;;;;;;;;;;;;;;;4853855;29;19924;-86
2022/06/27 10:00:49;;;;;;;;;;;;;;;;;;4834216;29;20553;-86
2022/06/27 10:03:16;;;;;;;;;;;;;;;;;;4839951;29;19932;-85
2022/06/27 10:06:03;;;;;;;;;;;;;;;;;;4838911;29;20096;-85
2022/06/27 10:08:40;;;;;;;;;;;;;;;;;;4824030;29;19975;-86
2022/06/27 10:11:08;;;;;;;;;;;;;;;;;;4828686;29;19924;-85
2022/06/27 10:13:34;;;;;;;;;;;;;;;;;;4834804;29;20003;-84
2022/06/27 10:16:00;;;;;;;;;;;;;;;;;;4831285;29;19959;-84
2022/06/27 10:18:27;;;;;;;;;;;;;;;;;;4832671;29;19932;-85
2022/06/27 10:20:53;;;;;;;;;;;;;;;;;;4813072;29;20291;-85
2022/06/27 10:23:26;;;;;;;;;;;;;;;;;;4823788;29;19928;-85
2022/06/27 10:25:53;;;;;;;;;;;;;;;;;;4832270;29;20011;-85
2022/06/27 10:28:23;;;;;;;;;;;;;;;;;;4833637;29;19928;-85
2022/06/27 10:30:49;;;;;;;;;;;;;;;;;;4832581;29;19932;-85
2022/06/27 10:33:17;;;;;;;;;;;;;;;;;;4813874;29;20327;-85
2022/06/27 10:35:44;;;;;;;;;;;;;;;;;;4827870;29;22309;-85
2022/06/27 10:38:11;;;;;;;;;;;;;;;;;;4835972;29;19932;-84
2022/06/27 10:40:44;;;;;;;;;;;;;;;;;;4830493;29;19939;-84
2022/06/27 10:43:11;;;;;;;;;;;;;;;;;;4827732;29;19932;-84
2022/06/27 10:45:40;;;;;;;;;;;;;;;;;;4837009;29;19939;-84
2022/06/27 10:48:11;;;;;;;;;;;;;;;;;;4830827;29;20376;-84
2022/06/27 10:50:38;;;;;;;;;;;;;;;;;;4825712;29;20499;-84
2022/06/27 10:53:05;;;;;;;;;;;;;;;;;;4816661;29;20027;-84
2022/06/27 10:55:31;;;;;;;;;;;;;;;;;;4842564;29;19932;-84
2022/06/27 10:57:59;;;;;;;;;;;;;;;;;;4835587;29;20375;-84
2022/06/27 11:00:41;;;;;;;;;;;;;;;;;;4834895;29;19933;-82
2022/06/27 11:03:09;;;;;;;;;;;;;;;;;;4809150;29;19935;-84
2022/06/27 11:05:35;;;;;;;;;;;;;;;;;;4813872;29;20780;-84
2022/06/27 11:08:16;;;;;;;;;;;;;;;;;;4767915;29;19936;-84
2022/06/27 11:10:42;;;;;;;;;;;;;;;;;;4748792;29;19925;-85
2022/06/27 11:13:09;;;;;;;;;;;;;;;;;;4744305;29;20340;-88
2022/06/27 11:15:35;;;;;;;;;;;;;;;;;;4737409;29;20896;-89
2022/06/27 11:18:03;;;;;;;;;;;;;;;;;;4750678;29;19964;-88
2022/06/27 11:20:29;;;;;;;;;;;;;;;;;;4753943;29;19932;-88
2022/06/27 11:23:06;;;;;;;;;;;;;;;;;;4765697;29;20286;-88
2022/06/27 11:25:33;;;;;;;;;;;;;;;;;;4752655;30;20304;-88
2022/06/27 11:31:57;;;;;;;;;;;;;;;;;;4733291;29;19938;-88
2022/06/27 11:33:38;;;;;;;;;;;;;;;;;;4773336;29;20011;-88
2022/06/27 11:36:05;;;;;;;;;;;;;;;;;;4772696;29;20024;-89
2022/06/27 11:38:35;;;;;;;;;;;;;;;;;;4787350;29;19977;-88
2022/06/27 11:41:17;;;;;;;;;;;;;;;;;;4769463;29;19937;-88
2022/06/27 11:43:43;;;;;;;;;;;;;;;;;;4748135;29;20425;-88
2022/06/27 11:46:10;;;;;;;;;;;;;;;;;;4801548;29;19947;-88
2022/06/27 11:48:36;;;;;;;;;;;;;;;;;;4817465;29;19928;-89
2022/06/27 11:51:03;;;;;;;;;;;;;;;;;;4824042;29;19995;-89
2022/06/27 11:53:30;;;;;;;;;;;;;;;;;;4819004;29;19955;-88
2022/06/27 11:55:58;;;;;;;;;;;;;;;;;;4813560;29;21552;-89
2022/06/27 11:58:25;;;;;;;;;;;;;;;;;;4821561;29;19939;-89
2022/06/27 12:00:51;;;;;;;;;;;;;;;;;;4802223;29;19924;-89
2022/06/27 12:03:17;;;;;;;;;;;;;;;;;;4812134;29;19988;-88
2022/06/27 12:05:44;;;;;;;;;;;;;;;;;;4816999;29;20623;-89
2022/06/27 12:08:10;;;;;;;;;;;;;;;;;;4821177;29;20013;-88
2022/06/27 12:10:37;;;;;;;;;;;;;;;;;;4806776;29;19927;-89
2022/06/27 12:13:05;;;;;;;;;;;;;;;;;;4827314;29;20372;-89
2022/06/27 12:15:32;;;;;;;;;;;;;;;;;;4846251;29;20372;-88
2022/06/27 12:17:59;;;;;;;;;;;;;;;;;;4831471;29;19932;-88
2022/06/27 12:20:25;;;;;;;;;;;;;;;;;;4830514;29;20348;-88
2022/06/27 12:22:53;;;;;;;;;;;;;;;;;;4834025;29;20023;-88
2022/06/27 12:25:20;;;;;;;;;;;;;;;;;;4840848;29;20015;-88
2022/06/27 12:27:47;;;;;;;;;;;;;;;;;;4842707;29;19936;-89
2022/06/27 12:30:19;;;;;;;;;;;;;;;;;;4825177;29;20007;-89
2022/06/27 12:32:46;;;;;;;;;;;;;;;;;;4839301;29;19924;-89
2022/06/27 12:35:12;;;;;;;;;;;;;;;;;;4833143;29;20011;-89
2022/06/27 12:37:39;;;;;;;;;;;;;;;;;;4826743;29;21159;-89
2022/06/27 12:40:06;;;;;;;;;;;;;;;;;;4825646;29;19936;-89
2022/06/27 12:42:33;;;;;;;;;;;;;;;;;;4843147;29;20390;-89
2022/06/27 12:44:59;;;;;;;;;;;;;;;;;;4837184;29;19932;-89
2022/06/27 12:47:29;;;;;;;;;;;;;;;;;;4856177;29;19933;-89
2022/06/27 12:49:55;;;;;;;;;;;;;;;;;;4839013;29;19931;-90
2022/06/27 12:52:21;;;;;;;;;;;;;;;;;;4846211;29;19930;-90
2022/06/27 12:54:48;;;;;;;;;;;;;;;;;;4845087;29;19924;-90
2022/06/27 12:57:16;;;;;;;;;;;;;;;;;;4843429;29;20291;-89
2022/06/27 12:59:43;;;;;;;;;;;;;;;;;;4844651;29;19928;-90
2022/06/27 13:02:09;;;;;;;;;;;;;;;;;;4841871;29;19928;-90
2022/06/27 13:04:35;;;;;;;;;;;;;;;;;;4839038;29;19932;-90
2022/06/27 13:07:06;;;;;;;;;;;;;;;;;;4844867;29;20060;-90
2022/06/27 13:09:33;;;;;;;;;;;;;;;;;;4844263;29;19924;-90
2022/06/27 13:12:00;;;;;;;;;;;;;;;;;;4840699;29;19989;-90
2022/06/27 13:14:28;;;;;;;;;;;;;;;;;;4842649;29;19924;-90
2022/06/27 13:16:57;;;;;;;;;;;;;;;;;;4842940;29;19980;-90
2022/06/27 13:19:25;;;;;;;;;;;;;;;;;;4845494;29;20032;-90
2022/06/27 13:22:10;;;;;;;;;;;;;;;;;;4837655;29;19932;-90
2022/06/27 13:24:36;;;;;;;;;;;;;;;;;;4829813;29;19932;-91
2022/06/27 13:27:18;;;;;;;;;;;;;;;;;;4836971;29;19928;-91
2022/06/27 13:29:45;;;;;;;;;;;;;;;;;;4810636;29;19924;-91
2022/06/27 13:32:11;;;;;;;;;;;;;;;;;;4822048;29;20594;-91
2022/06/27 13:34:39;;;;;;;;;;;;;;;;;;4799910;29;20468;-91
2022/06/27 13:37:25;;;;;;;;;;;;;;;;;;4808563;29;20074;-91
2022/06/27 13:39:53;;;;;;;;;;;;;;;;;;4806813;29;19935;-90
2022/06/27 13:42:20;;;;;;;;;;;;;;;;;;4792254;29;19929;-90
2022/06/27 13:44:47;;;;;;;;;;;;;;;;;;4806446;29;19933;-89
2022/06/27 13:47:14;;;;;;;;;;;;;;;;;;4806802;29;19924;-90
2022/06/27 13:52:44;;;;;;;;;;;;;;;;;;4812115;29;19928;-91
2022/06/27 13:55:11;;;;;;;;;;;;;;;;;;4795531;29;19933;-91
2022/06/27 13:57:38;;;;;;;;;;;;;;;;;;4788609;29;20300;-91
2022/06/27 14:00:04;;;;;;;;;;;;;;;;;;4836603;29;19932;-92
2022/06/27 14:02:30;;;;;;;;;;;;;;;;;;4828264;29;20004;-90
2022/06/27 14:04:56;;;;;;;;;;;;;;;;;;4840272;29;20850;-91
2022/06/27 14:07:43;;;;;;;;;;;;;;;;;;4841652;29;19932;-91
2022/06/27 14:10:09;;;;;;;;;;;;;;;;;;4840065;29;19924;-91
2022/06/27 14:12:35;;;;;;;;;;;;;;;;;;4837607;29;20008;-91
2022/06/27 14:15:01;;;;;;;;;;;;;;;;;;4834218;29;19932;-90
2022/06/27 14:17:27;;;;;;;;;;;;;;;;;;4836431;29;19932;-90
2022/06/27 14:19:53;;;;;;;;;;;;;;;;;;4835817;29;19928;-90
2022/06/27 14:22:20;;;;;;;;;;;;;;;;;;4829050;29;19924;-90
2022/06/27 14:24:48;;;;;;;;;;;;;;;;;;4836549;29;19992;-91
2022/06/27 14:27:18;;;;;;;;;;;;;;;;;;4823759;29;19924;-91
2022/06/27 14:29:44;;;;;;;;;;;;;;;;;;4832519;29;19967;-89
2022/06/27 14:32:10;;;;;;;;;;;;;;;;;;4837014;29;19932;-90
2022/06/27 14:34:36;;;;;;;;;;;;;;;;;;4819096;29;19939;-90
2022/06/27 14:37:03;;;;;;;;;;;;;;;;;;4826027;29;19924;-90
2022/06/27 14:39:29;;;;;;;;;;;;;;;;;;4837738;29;19954;-91
2022/06/27 14:41:55;;;;;;;;;;;;;;;;;;4834452;29;19936;-90
2022/06/27 14:44:21;;;;;;;;;;;;;;;;;;4835541;29;19932;-90
2022/06/27 14:46:47;;;;;;;;;;;;;;;;;;4833106;29;19957;-90
2022/06/27 14:49:13;;;;;;;;;;;;;;;;;;4834873;29;20019;-91
2022/06/27 14:51:40;;;;;;;;;;;;;;;;;;4818419;29;19932;-89
2022/06/27 14:54:09;;;;;;;;;;;;;;;;;;4840064;29;19932;-90
2022/06/27 14:56:35;;;;;;;;;;;;;;;;;;4852543;29;20284;-90
2022/06/27 14:59:02;;;;;;;;;;;;;;;;;;4839234;29;20420;-90
2022/06/27 15:01:28;;;;;;;;;;;;;;;;;;4823249;29;19928;-90
2022/06/27 15:03:54;;;;;;;;;;;;;;;;;;4849010;29;20472;-90
2022/06/27 15:06:20;;;;;;;;;;;;;;;;;;4835822;29;19942;-90
2022/06/27 15:08:47;;;;;;;;;;;;;;;;;;4815707;29;19968;-90
2022/06/27 15:13:58;;;;;;;;;;;;;;;;;;4830206;29;20015;-90
2022/06/27 15:16:26;;;;;;;;;;;;;;;;;;4831199;29;19993;-90
2022/06/27 15:18:52;;;;;;;;;;;;;;;;;;4834695;29;19924;-90
2022/06/27 15:21:20;;;;;;;;;;;;;;;;;;4839066;29;19932;-90
2022/06/27 15:23:46;;;;;;;;;;;;;;;;;;4818512;29;20288;-89
2022/06/27 15:26:14;;;;;;;;;;;;;;;;;;4832744;29;19928;-90
2022/06/27 15:28:40;;;;;;;;;;;;;;;;;;4818148;29;20008;-90
2022/06/27 15:31:06;;;;;;;;;;;;;;;;;;4832834;29;19939;-89
2022/06/27 15:33:32;;;;;;;;;;;;;;;;;;4835861;29;19932;-89
2022/06/27 15:35:59;;;;;;;;;;;;;;;;;;4833313;29;19932;-90
2022/06/27 15:38:25;;;;;;;;;;;;;;;;;;4821644;29;19932;-90
2022/06/27 15:40:52;;;;;;;;;;;;;;;;;;4823241;29;19984;-89
2022/06/27 15:43:19;;;;;;;;;;;;;;;;;;4829828;29;19924;-89
2022/06/27 15:45:46;;;;;;;;;;;;;;;;;;4828019;29;20020;-90
2022/06/27 15:48:12;;;;;;;;;;;;;;;;;;4836814;29;19924;-89
2022/06/27 15:50:38;;;;;;;;;;;;;;;;;;4832709;29;19938;-89
2022/06/27 15:53:05;;;;;;;;;;;;;;;;;;4821930;29;19927;-89
2022/06/27 15:55:31;;;;;;;;;;;;;;;;;;4817819;29;20059;-87
2022/06/27 15:57:59;;;;;;;;;;;;;;;;;;4829347;29;19933;-89
2022/06/27 16:00:27;;;;;;;;;;;;;;;;;;4831896;29;19924;-88
2022/06/27 16:02:53;;;;;;;;;;;;;;;;;;4828479;29;19933;-89
2022/06/27 16:05:30;;;;;;;;;;;;;;;;;;4824002;29;19928;-89
2022/06/27 16:08:02;;;;;;;;;;;;;;;;;;4834066;29;19936;-89
2022/06/27 16:10:28;;;;;;;;;;;;;;;;;;4844992;29;20288;-89
2022/06/27 16:12:56;;;;;;;;;;;;;;;;;;4811484;29;20300;-89
2022/06/27 16:15:30;;;;;;;;;;;;;;;;;;4831527;29;19935;-89
2022/06/27 16:17:58;;;;;;;;;;;;;;;;;;4830885;29;19931;-90
2022/06/27 16:20:25;;;;;;;;;;;;;;;;;;4821560;29;19935;-90
2022/06/27 16:22:51;;;;;;;;;;;;;;;;;;4827150;29;19938;-90
2022/06/27 16:25:17;;;;;;;;;;;;;;;;;;4834808;29;19932;-90
2022/06/27 16:27:45;;;;;;;;;;;;;;;;;;4826715;29;19932;-89
2022/06/27 16:33:04;;;;;;;;;;;;;;;;;;4835506;29;19949;-90
2022/06/27 16:35:32;;;;;;;;;;;;;;;;;;4818478;29;19932;-90
2022/06/27 16:38:02;;;;;;;;;;;;;;;;;;4844773;29;19928;-91
2022/06/27 16:40:29;;;;;;;;;;;;;;;;;;4819304;29;19936;-92
2022/06/27 16:45:44;;;;;;;;;;;;;;;;;;4825916;29;19928;-92
2022/06/27 16:48:11;;;;;;;;;;;;;;;;;;4810553;29;19967;-92
2022/06/27 16:50:39;;;;;;;;;;;;;;;;;;4817480;29;19959;-92
2022/06/27 16:53:06;;;;;;;;;;;;;;;;;;4814052;29;19932;-90
2022/06/27 16:55:35;;;;;;;;;;;;;;;;;;4815032;29;20257;-91
2022/06/27 16:58:16;;;;;;;;;;;;;;;;;;4825355;29;20304;-90
2022/06/27 17:00:52;;;;;;;;;;;;;;;;;;4826961;29;19924;-89
2022/06/27 17:03:20;;;;;;;;;;;;;;;;;;4814735;29;19984;-90
2022/06/27 17:05:46;;;;;;;;;;;;;;;;;;4824560;29;19936;-90
2022/06/27 17:08:13;;;;;;;;;;;;;;;;;;4844631;29;19935;-89
2022/06/27 17:10:59;;;;;;;;;;;;;;;;;;4830424;29;20025;-89
2022/06/27 17:13:26;;;;;;;;;;;;;;;;;;4830044;29;20011;-89
2022/06/27 17:15:54;;;;;;;;;;;;;;;;;;4821771;29;20441;-89